createdAt,value
2019-01-12T00:00:37.913Z,29.00
2019-01-12T00:01:19.217Z,28.90
2019-01-12T00:01:57.974Z,29.00
2019-01-12T00:02:36.646Z,29.00
2019-01-12T00:03:15.412Z,28.90
2019-01-12T00:03:53.992Z,28.90
2019-01-12T00:04:32.712Z,28.90
2019-01-12T00:05:11.536Z,28.90
2019-01-12T00:05:50.306Z,28.90
2019-01-12T00:06:29.047Z,28.90
2019-01-12T00:07:07.703Z,28.90
2019-01-12T00:07:46.327Z,28.90
2019-01-12T00:08:24.987Z,28.90
2019-01-12T00:09:03.688Z,28.90
2019-01-12T00:09:42.424Z,29.00
2019-01-12T00:10:21.070Z,28.90
2019-01-12T00:10:59.789Z,29.00
2019-01-12T00:11:38.514Z,28.90
2019-01-12T00:12:17.279Z,28.90
2019-01-12T00:12:55.899Z,28.90
2019-01-12T00:13:34.596Z,28.90
2019-01-12T00:14:13.243Z,28.90
2019-01-12T00:14:51.903Z,28.90
2019-01-12T00:15:30.541Z,29.00
2019-01-12T00:16:09.148Z,28.90
2019-01-12T00:16:47.887Z,29.00
2019-01-12T00:17:26.632Z,29.00
2019-01-12T00:18:05.348Z,29.00
2019-01-12T00:18:44.072Z,29.00
2019-01-12T00:19:22.670Z,29.00
2019-01-12T00:20:01.388Z,29.00
2019-01-12T00:20:40.117Z,29.00
2019-01-12T00:21:18.824Z,29.00
2019-01-12T00:21:57.571Z,29.00
2019-01-12T00:22:36.243Z,29.00
2019-01-12T00:23:15.004Z,29.00
2019-01-12T00:23:53.890Z,29.00
2019-01-12T00:24:32.601Z,29.00
2019-01-12T00:25:11.385Z,29.00
2019-01-12T00:25:50.043Z,29.00
2019-01-12T00:26:28.744Z,29.00
2019-01-12T00:27:07.450Z,29.00
2019-01-12T00:27:46.147Z,29.00
2019-01-12T00:28:24.931Z,29.00
2019-01-12T00:29:03.657Z,29.00
2019-01-12T00:29:42.349Z,29.00
2019-01-12T00:30:20.945Z,29.00
2019-01-12T00:30:59.643Z,29.00
2019-01-12T00:31:38.345Z,29.00
2019-01-12T00:32:17.111Z,29.00
2019-01-12T00:32:55.789Z,29.00
2019-01-12T00:33:34.549Z,29.00
2019-01-12T00:34:13.261Z,29.00
2019-01-12T00:34:51.925Z,29.00
2019-01-12T00:35:30.726Z,29.00
2019-01-12T00:36:09.421Z,29.00
2019-01-12T00:36:48.124Z,29.00
2019-01-12T00:37:26.844Z,29.00
2019-01-12T00:38:05.994Z,29.00
2019-01-12T00:38:44.711Z,29.00
2019-01-12T00:39:23.522Z,29.00
2019-01-12T00:40:02.212Z,29.00
2019-01-12T00:40:40.916Z,29.00
2019-01-12T00:41:19.630Z,29.00
2019-01-12T00:41:58.330Z,29.10
2019-01-12T00:42:36.982Z,29.00
2019-01-12T00:43:15.717Z,29.00
2019-01-12T00:43:54.347Z,29.00
2019-01-12T00:44:33.098Z,29.00
2019-01-12T00:45:12.740Z,29.00
2019-01-12T00:45:51.496Z,29.00
2019-01-12T00:46:30.161Z,29.00
2019-01-12T00:47:08.792Z,29.00
2019-01-12T00:47:47.518Z,29.00
2019-01-12T00:48:26.323Z,29.00
2019-01-12T00:49:05.003Z,29.00
2019-01-12T00:49:43.739Z,29.00
2019-01-12T00:50:22.636Z,29.00
2019-01-12T00:51:01.310Z,29.00
2019-01-12T00:51:40.025Z,29.00
2019-01-12T00:52:18.675Z,29.00
2019-01-12T00:52:57.306Z,29.00
2019-01-12T00:53:36.162Z,29.00
2019-01-12T00:54:15.399Z,29.00
2019-01-12T00:54:54.095Z,29.00
2019-01-12T00:55:32.766Z,29.00
2019-01-12T00:56:11.360Z,29.00
2019-01-12T00:56:50.005Z,29.00
2019-01-12T00:57:28.674Z,29.00
2019-01-12T00:58:07.437Z,29.00
2019-01-12T00:58:46.126Z,29.00
2019-01-12T00:59:24.843Z,29.00
2019-01-12T01:00:03.637Z,29.00
2019-01-12T01:00:42.330Z,29.00
2019-01-12T01:01:21.017Z,29.00
2019-01-12T01:01:59.726Z,29.00
2019-01-12T01:02:38.379Z,29.00
2019-01-12T01:03:17.144Z,29.00
2019-01-12T01:03:55.913Z,29.00
2019-01-12T01:04:34.567Z,29.00
2019-01-12T01:05:13.316Z,29.00
2019-01-12T01:05:52.022Z,29.00
2019-01-12T01:06:30.683Z,29.00
2019-01-12T01:07:09.490Z,29.00
2019-01-12T01:07:48.092Z,29.00
2019-01-12T01:08:26.770Z,29.00
2019-01-12T01:09:05.640Z,29.00
2019-01-12T01:09:44.263Z,29.00
2019-01-12T01:10:24.633Z,29.00
2019-01-12T01:11:03.331Z,29.00
2019-01-12T01:11:42.080Z,29.00
2019-01-12T01:12:20.901Z,29.00
2019-01-12T01:12:59.507Z,29.00
2019-01-12T01:13:38.297Z,29.00
2019-01-12T01:14:17.148Z,29.00
2019-01-12T01:14:55.852Z,29.00
2019-01-12T01:15:34.468Z,29.00
2019-01-12T01:16:13.237Z,29.00
2019-01-12T01:16:51.948Z,29.00
2019-01-12T01:17:30.696Z,29.00
2019-01-12T01:18:09.408Z,29.00
2019-01-12T01:18:48.145Z,29.00
2019-01-12T01:19:26.888Z,29.00
2019-01-12T01:20:05.577Z,29.00
2019-01-12T01:20:44.292Z,29.00
2019-01-12T01:21:24.234Z,29.00
2019-01-12T01:22:02.954Z,29.00
2019-01-12T01:22:41.733Z,29.00
2019-01-12T01:23:20.376Z,29.00
2019-01-12T01:23:59.084Z,29.00
2019-01-12T01:24:37.736Z,29.00
2019-01-12T01:25:16.574Z,29.00
2019-01-12T01:25:55.317Z,29.00
2019-01-12T01:26:33.998Z,29.00
2019-01-12T01:27:12.703Z,29.00
2019-01-12T01:27:51.409Z,29.10
2019-01-12T01:28:30.177Z,29.10
2019-01-12T01:29:08.966Z,29.00
2019-01-12T01:29:47.732Z,29.00
2019-01-12T01:30:26.369Z,29.00
2019-01-12T01:31:05.159Z,29.00
2019-01-12T01:31:43.870Z,29.00
2019-01-12T01:32:22.627Z,29.10
2019-01-12T01:33:01.353Z,29.00
2019-01-12T01:33:40.135Z,29.00
2019-01-12T01:34:18.844Z,29.00
2019-01-12T01:34:57.548Z,29.00
2019-01-12T01:35:36.331Z,29.10
2019-01-12T01:36:15.013Z,29.00
2019-01-12T01:36:53.790Z,29.00
2019-01-12T01:37:32.510Z,29.00
2019-01-12T01:38:11.264Z,29.00
2019-01-12T01:38:50.037Z,29.00
2019-01-12T01:39:28.752Z,29.10
2019-01-12T01:40:07.702Z,29.00
2019-01-12T01:40:46.447Z,29.00
2019-01-12T01:41:25.182Z,29.00
2019-01-12T01:42:04.308Z,29.00
2019-01-12T01:42:42.963Z,29.00
2019-01-12T01:43:21.646Z,29.00
2019-01-12T01:44:00.243Z,29.00
2019-01-12T01:44:38.927Z,29.00
2019-01-12T01:45:18.306Z,29.10
2019-01-12T01:45:57.001Z,29.10
2019-01-12T01:46:35.664Z,29.10
2019-01-12T01:47:14.378Z,29.10
2019-01-12T01:47:53.415Z,29.10
2019-01-12T01:48:32.156Z,29.10
2019-01-12T01:49:10.799Z,29.00
2019-01-12T01:49:49.502Z,29.10
2019-01-12T01:50:28.240Z,29.00
2019-01-12T01:51:06.985Z,29.10
2019-01-12T01:51:45.661Z,29.10
2019-01-12T01:52:24.370Z,29.10
2019-01-12T01:53:03.007Z,29.10
2019-01-12T01:53:41.698Z,29.10
2019-01-12T01:54:20.851Z,29.10
2019-01-12T01:54:59.573Z,29.10
2019-01-12T01:55:38.254Z,29.10
2019-01-12T01:56:16.962Z,29.10
2019-01-12T01:56:55.865Z,29.10
2019-01-12T01:57:34.706Z,29.10
2019-01-12T01:58:13.470Z,29.10
2019-01-12T01:58:52.409Z,29.10
2019-01-12T01:59:31.004Z,29.10
2019-01-12T02:00:12.680Z,29.10
2019-01-12T02:00:51.428Z,29.10
2019-01-12T02:01:30.127Z,29.10
2019-01-12T02:02:08.865Z,29.10
2019-01-12T02:02:47.673Z,29.10
2019-01-12T02:03:26.322Z,29.10
2019-01-12T02:04:04.993Z,29.10
2019-01-12T02:04:43.657Z,29.10
2019-01-12T02:05:22.399Z,29.10
2019-01-12T02:06:01.119Z,29.10
2019-01-12T02:06:39.824Z,29.10
2019-01-12T02:07:18.557Z,29.10
2019-01-12T02:07:57.254Z,29.10
2019-01-12T02:08:35.992Z,29.10
2019-01-12T02:09:14.558Z,29.10
2019-01-12T02:09:53.252Z,29.10
2019-01-12T02:10:31.995Z,29.10
2019-01-12T02:11:10.847Z,29.10
2019-01-12T02:11:49.559Z,29.10
2019-01-12T02:12:28.247Z,29.10
2019-01-12T02:13:06.939Z,29.10
2019-01-12T02:13:45.686Z,29.10
2019-01-12T02:14:24.650Z,29.10
2019-01-12T02:15:03.421Z,29.10
2019-01-12T02:15:42.100Z,29.10
2019-01-12T02:16:20.793Z,29.10
2019-01-12T02:16:59.514Z,29.10
2019-01-12T02:17:38.118Z,29.10
2019-01-12T02:18:16.873Z,29.10
2019-01-12T02:18:55.575Z,29.10
2019-01-12T02:19:34.368Z,29.10
2019-01-12T02:20:13.182Z,29.10
2019-01-12T02:20:51.877Z,29.10
2019-01-12T02:21:30.564Z,29.20
2019-01-12T02:22:09.196Z,29.10
2019-01-12T02:22:47.923Z,29.10
2019-01-12T02:23:26.536Z,29.10
2019-01-12T02:24:05.161Z,29.10
2019-01-12T02:24:43.881Z,29.20
2019-01-12T02:25:22.559Z,29.10
2019-01-12T02:26:01.233Z,29.20
2019-01-12T02:26:40.013Z,29.20
2019-01-12T02:27:18.997Z,29.20
2019-01-12T02:27:57.733Z,29.20
2019-01-12T02:28:36.423Z,29.20
2019-01-12T02:29:15.136Z,29.20
2019-01-12T02:29:53.795Z,29.20
2019-01-12T02:30:32.472Z,29.20
2019-01-12T02:31:11.290Z,29.20
2019-01-12T02:31:50.032Z,29.20
2019-01-12T02:32:28.839Z,29.20
2019-01-12T02:33:07.513Z,29.20
2019-01-12T02:33:46.177Z,29.20
2019-01-12T02:34:24.963Z,29.20
2019-01-12T02:35:03.590Z,29.20
2019-01-12T02:35:42.198Z,29.20
2019-01-12T02:36:20.916Z,29.20
2019-01-12T02:36:59.764Z,29.20
2019-01-12T02:37:38.432Z,29.20
2019-01-12T02:38:17.057Z,29.20
2019-01-12T02:38:55.728Z,29.20
2019-01-12T02:39:34.416Z,29.20
2019-01-12T02:40:13.063Z,29.20
2019-01-12T02:40:51.763Z,29.20
2019-01-12T02:41:30.510Z,29.20
2019-01-12T02:42:09.441Z,29.20
2019-01-12T02:42:48.159Z,29.20
2019-01-12T02:43:26.865Z,29.20
2019-01-12T02:44:05.597Z,29.20
2019-01-12T02:44:44.247Z,29.20
2019-01-12T02:45:22.849Z,29.20
2019-01-12T02:46:01.675Z,29.20
2019-01-12T02:46:40.297Z,29.20
2019-01-12T02:47:18.979Z,29.20
2019-01-12T02:47:57.713Z,29.20
2019-01-12T02:48:36.509Z,29.20
2019-01-12T02:49:15.133Z,29.30
2019-01-12T02:49:53.876Z,29.30
2019-01-12T02:50:32.646Z,29.20
2019-01-12T02:51:11.266Z,29.30
2019-01-12T02:51:49.883Z,29.30
2019-01-12T02:52:28.553Z,29.30
2019-01-12T02:53:07.381Z,29.30
2019-01-12T02:53:46.128Z,29.30
2019-01-12T02:54:24.892Z,29.30
2019-01-12T02:55:08.575Z,29.30
2019-01-12T02:55:43.776Z,29.30
2019-01-12T02:56:22.455Z,29.30
2019-01-12T02:57:01.216Z,29.30
2019-01-12T02:57:39.941Z,29.30
2019-01-12T02:58:18.554Z,29.30
2019-01-12T02:58:57.380Z,29.30
2019-01-12T02:59:36.080Z,29.30
2019-01-12T03:00:19.843Z,29.30
2019-01-12T03:00:58.578Z,29.30
2019-01-12T03:01:37.248Z,29.30
2019-01-12T03:02:16.077Z,29.30
2019-01-12T03:02:54.813Z,29.30
2019-01-12T03:03:34.086Z,29.30
2019-01-12T03:04:12.987Z,29.30
2019-01-12T03:04:51.751Z,29.30
2019-01-12T03:05:30.497Z,29.30
2019-01-12T03:06:09.263Z,29.30
2019-01-12T03:06:48.038Z,29.30
2019-01-12T03:07:26.779Z,29.40
2019-01-12T03:08:05.493Z,29.40
2019-01-12T03:08:44.197Z,29.40
2019-01-12T03:09:22.982Z,29.40
2019-01-12T03:10:01.688Z,29.40
2019-01-12T03:10:40.316Z,29.40
2019-01-12T03:11:19.011Z,29.40
2019-01-12T03:11:57.842Z,29.40
2019-01-12T03:12:36.550Z,29.40
2019-01-12T03:13:15.276Z,29.40
2019-01-12T03:13:53.907Z,29.40
2019-01-12T03:14:32.635Z,29.40
2019-01-12T03:15:12.723Z,29.40
2019-01-12T03:15:51.387Z,29.40
2019-01-12T03:16:30.055Z,29.40
2019-01-12T03:17:08.761Z,29.40
2019-01-12T03:17:47.644Z,29.40
2019-01-12T03:18:26.327Z,29.40
2019-01-12T03:19:04.985Z,29.40
2019-01-12T03:19:43.742Z,29.40
2019-01-12T03:20:22.797Z,29.40
2019-01-12T03:21:01.561Z,29.40
2019-01-12T03:21:40.384Z,29.40
2019-01-12T03:22:18.979Z,29.40
2019-01-12T03:22:57.787Z,29.40
2019-01-12T03:23:36.413Z,29.40
2019-01-12T03:24:15.104Z,29.40
2019-01-12T03:24:53.723Z,29.40
2019-01-12T03:25:32.528Z,29.40
2019-01-12T03:26:11.281Z,29.40
2019-01-12T03:26:49.993Z,29.40
2019-01-12T03:27:28.755Z,29.40
2019-01-12T03:28:07.417Z,29.40
2019-01-12T03:28:46.118Z,29.40
2019-01-12T03:29:24.755Z,29.40
2019-01-12T03:30:03.394Z,29.40
2019-01-12T03:30:42.101Z,29.40
2019-01-12T03:31:20.835Z,29.50
2019-01-12T03:32:00.170Z,29.50
2019-01-12T03:32:38.827Z,29.50
2019-01-12T03:33:17.456Z,29.50
2019-01-12T03:33:56.159Z,29.50
2019-01-12T03:34:34.929Z,29.50
2019-01-12T03:35:13.633Z,29.50
2019-01-12T03:35:52.468Z,29.50
2019-01-12T03:36:31.123Z,29.50
2019-01-12T03:37:09.952Z,29.50
2019-01-12T03:37:48.693Z,29.50
2019-01-12T03:38:27.423Z,29.50
2019-01-12T03:39:06.632Z,29.50
2019-01-12T03:39:45.227Z,29.50
2019-01-12T03:40:24.657Z,29.50
2019-01-12T03:41:03.358Z,29.50
2019-01-12T03:41:42.101Z,29.50
2019-01-12T03:42:20.867Z,29.50
2019-01-12T03:42:59.529Z,29.50
2019-01-12T03:43:38.312Z,29.50
2019-01-12T03:44:17.136Z,29.50
2019-01-12T03:44:55.946Z,29.50
2019-01-12T03:45:34.731Z,29.50
2019-01-12T03:46:13.501Z,29.50
2019-01-12T03:46:52.142Z,29.50
2019-01-12T03:47:30.903Z,29.50
2019-01-12T03:48:09.649Z,29.50
2019-01-12T03:48:48.356Z,29.50
2019-01-12T03:49:27.103Z,29.50
2019-01-12T03:50:06.041Z,29.50
2019-01-12T03:50:44.756Z,29.50
2019-01-12T03:51:23.457Z,29.50
2019-01-12T03:52:02.169Z,29.50
2019-01-12T03:52:40.924Z,29.60
2019-01-12T03:53:19.722Z,29.60
2019-01-12T03:53:58.399Z,29.60
2019-01-12T03:54:37.105Z,29.60
2019-01-12T03:55:15.730Z,29.60
2019-01-12T03:55:54.379Z,29.60
2019-01-12T03:56:33.046Z,29.60
2019-01-12T03:57:11.765Z,29.60
2019-01-12T03:57:50.568Z,29.60
2019-01-12T03:58:29.178Z,29.60
2019-01-12T03:59:07.994Z,29.60
2019-01-12T03:59:46.690Z,29.60
2019-01-12T04:00:26.845Z,29.60
2019-01-12T04:01:05.510Z,29.60
2019-01-12T04:01:44.125Z,29.60
2019-01-12T04:02:22.819Z,29.60
2019-01-12T04:03:01.572Z,29.60
2019-01-12T04:03:40.332Z,29.60
2019-01-12T04:04:19.331Z,29.60
2019-01-12T04:04:58.079Z,29.60
2019-01-12T04:05:36.785Z,29.60
2019-01-12T04:06:15.506Z,29.60
2019-01-12T04:06:54.204Z,29.60
2019-01-12T04:07:32.884Z,29.70
2019-01-12T04:08:11.675Z,29.60
2019-01-12T04:08:50.391Z,29.70
2019-01-12T04:09:29.093Z,29.60
2019-01-12T04:10:08.012Z,29.70
2019-01-12T04:10:46.698Z,29.70
2019-01-12T04:11:25.466Z,29.70
2019-01-12T04:12:04.127Z,29.70
2019-01-12T04:12:42.819Z,29.70
2019-01-12T04:13:21.477Z,29.70
2019-01-12T04:14:00.139Z,29.70
2019-01-12T04:14:38.807Z,29.70
2019-01-12T04:15:17.532Z,29.70
2019-01-12T04:15:56.267Z,29.70
2019-01-12T04:16:34.919Z,29.70
2019-01-12T04:17:13.633Z,29.70
2019-01-12T04:17:52.301Z,29.70
2019-01-12T04:18:31.495Z,29.70
2019-01-12T04:19:10.171Z,29.70
2019-01-12T04:19:48.780Z,29.70
2019-01-12T04:20:27.526Z,29.70
2019-01-12T04:21:06.313Z,29.70
2019-01-12T04:21:44.903Z,29.70
2019-01-12T04:22:23.842Z,29.70
2019-01-12T04:23:02.646Z,29.70
2019-01-12T04:23:41.474Z,29.70
2019-01-12T04:24:20.047Z,29.70
2019-01-12T04:24:58.833Z,29.80
2019-01-12T04:25:37.534Z,29.70
2019-01-12T04:26:16.273Z,29.70
2019-01-12T04:26:55.010Z,29.80
2019-01-12T04:27:33.628Z,29.80
2019-01-12T04:28:12.283Z,29.80
2019-01-12T04:28:50.972Z,29.80
2019-01-12T04:29:29.707Z,29.80
2019-01-12T04:30:09.508Z,29.80
2019-01-12T04:30:48.417Z,29.80
2019-01-12T04:31:27.148Z,29.80
2019-01-12T04:32:05.907Z,29.80
2019-01-12T04:32:44.669Z,29.80
2019-01-12T04:33:23.472Z,29.80
2019-01-12T04:34:02.156Z,29.80
2019-01-12T04:34:40.931Z,29.80
2019-01-12T04:35:19.547Z,29.80
2019-01-12T04:35:58.297Z,29.80
2019-01-12T04:36:37.013Z,29.80
2019-01-12T04:37:15.817Z,29.80
2019-01-12T04:37:54.518Z,29.80
2019-01-12T04:38:33.224Z,29.80
2019-01-12T04:39:12.564Z,29.80
2019-01-12T04:39:51.332Z,29.80
2019-01-12T04:40:30.043Z,29.80
2019-01-12T04:41:08.850Z,29.80
2019-01-12T04:41:47.540Z,29.80
2019-01-12T04:42:26.278Z,29.90
2019-01-12T04:43:04.971Z,29.90
2019-01-12T04:43:43.691Z,29.90
2019-01-12T04:44:22.353Z,29.80
2019-01-12T04:45:01.589Z,29.90
2019-01-12T04:45:40.308Z,29.90
2019-01-12T04:46:18.991Z,29.90
2019-01-12T04:46:58.358Z,29.90
2019-01-12T04:47:37.026Z,29.90
2019-01-12T04:48:15.713Z,29.90
2019-01-12T04:48:54.512Z,29.90
2019-01-12T04:49:33.268Z,29.90
2019-01-12T04:50:14.420Z,29.90
2019-01-12T04:50:53.361Z,29.90
2019-01-12T04:51:32.022Z,29.90
2019-01-12T04:52:10.661Z,29.90
2019-01-12T04:52:49.433Z,29.90
2019-01-12T04:53:28.102Z,29.90
2019-01-12T04:54:06.777Z,29.90
2019-01-12T04:54:45.412Z,29.90
2019-01-12T04:55:24.108Z,29.90
2019-01-12T04:56:02.802Z,29.90
2019-01-12T04:56:41.519Z,29.90
2019-01-12T04:57:20.266Z,29.90
2019-01-12T04:57:58.927Z,29.90
2019-01-12T04:58:37.648Z,29.90
2019-01-12T04:59:16.325Z,29.90
2019-01-12T04:59:55.061Z,29.90
2019-01-12T05:00:33.691Z,29.90
2019-01-12T05:01:12.398Z,29.90
2019-01-12T05:01:51.099Z,29.90
2019-01-12T05:02:29.735Z,29.90
2019-01-12T05:03:08.428Z,29.90
2019-01-12T05:03:47.126Z,29.90
2019-01-12T05:04:25.863Z,29.90
2019-01-12T05:05:04.634Z,29.90
2019-01-12T05:05:43.248Z,30.00
2019-01-12T05:06:21.897Z,30.00
2019-01-12T05:07:00.651Z,30.00
2019-01-12T05:07:39.348Z,30.00
2019-01-12T05:08:18.037Z,30.00
2019-01-12T05:08:56.943Z,30.00
2019-01-12T05:09:35.681Z,30.00
2019-01-12T05:10:15.382Z,30.00
2019-01-12T05:10:54.201Z,30.00
2019-01-12T05:11:32.929Z,30.00
2019-01-12T05:12:11.550Z,30.00
2019-01-12T05:12:50.265Z,30.00
2019-01-12T05:13:28.955Z,30.00
2019-01-12T05:14:07.622Z,30.00
2019-01-12T05:14:46.435Z,30.00
2019-01-12T05:15:25.231Z,30.00
2019-01-12T05:16:03.933Z,30.00
2019-01-12T05:16:42.628Z,30.00
2019-01-12T05:17:21.284Z,30.00
2019-01-12T05:17:59.877Z,30.00
2019-01-12T05:18:38.522Z,30.00
2019-01-12T05:19:17.530Z,30.00
2019-01-12T05:19:56.141Z,30.00
2019-01-12T05:20:34.877Z,30.00
2019-01-12T05:21:13.645Z,30.10
2019-01-12T05:21:52.363Z,30.00
2019-01-12T05:22:31.077Z,30.10
2019-01-12T05:23:09.774Z,30.10
2019-01-12T05:23:48.445Z,30.10
2019-01-12T05:24:27.312Z,30.10
2019-01-12T05:25:06.002Z,30.10
2019-01-12T05:25:48.963Z,30.10
2019-01-12T05:26:24.848Z,30.10
2019-01-12T05:27:03.514Z,30.10
2019-01-12T05:27:42.241Z,30.10
2019-01-12T05:28:20.925Z,30.10
2019-01-12T05:28:59.615Z,30.10
2019-01-12T05:29:38.234Z,30.10
2019-01-12T05:30:19.315Z,30.10
2019-01-12T05:30:58.093Z,30.10
2019-01-12T05:31:36.681Z,30.10
2019-01-12T05:32:15.398Z,30.10
2019-01-12T05:32:54.121Z,30.10
2019-01-12T05:33:32.799Z,30.10
2019-01-12T05:34:11.577Z,30.10
2019-01-12T05:34:50.416Z,30.10
2019-01-12T05:35:29.013Z,30.10
2019-01-12T05:36:07.784Z,30.10
2019-01-12T05:36:46.526Z,30.10
2019-01-12T05:37:25.180Z,30.10
2019-01-12T05:38:04.022Z,30.10
2019-01-12T05:38:42.719Z,30.10
2019-01-12T05:39:21.892Z,30.10
2019-01-12T05:40:00.557Z,30.10
2019-01-12T05:40:39.230Z,30.20
2019-01-12T05:41:18.031Z,30.20
2019-01-12T05:41:56.707Z,30.20
2019-01-12T05:42:36.399Z,30.10
2019-01-12T05:43:15.990Z,30.20
2019-01-12T05:43:54.766Z,30.20
2019-01-12T05:44:33.547Z,30.20
2019-01-12T05:45:12.491Z,30.20
2019-01-12T05:45:51.109Z,30.20
2019-01-12T05:46:29.751Z,30.20
2019-01-12T05:47:08.465Z,30.20
2019-01-12T05:47:47.199Z,30.20
2019-01-12T05:48:25.863Z,30.20
2019-01-12T05:49:05.468Z,30.20
2019-01-12T05:49:44.205Z,30.20
2019-01-12T05:50:22.893Z,30.20
2019-01-12T05:51:01.555Z,30.20
2019-01-12T05:51:40.316Z,30.20
2019-01-12T05:52:18.957Z,30.20
2019-01-12T05:52:57.720Z,30.20
2019-01-12T05:53:36.477Z,30.20
2019-01-12T05:54:15.228Z,30.20
2019-01-12T05:54:53.890Z,30.20
2019-01-12T05:55:32.702Z,30.20
2019-01-12T05:56:11.484Z,30.20
2019-01-12T05:56:50.149Z,30.20
2019-01-12T05:57:28.926Z,30.20
2019-01-12T05:58:07.591Z,30.20
2019-01-12T05:58:46.409Z,30.30
2019-01-12T05:59:25.179Z,30.30
2019-01-12T06:00:03.860Z,30.20
2019-01-12T06:00:42.604Z,30.30
2019-01-12T06:01:21.268Z,30.30
2019-01-12T06:01:59.978Z,30.30
2019-01-12T06:02:38.563Z,30.30
2019-01-12T06:03:17.252Z,30.30
2019-01-12T06:03:55.925Z,30.30
2019-01-12T06:04:34.571Z,30.30
2019-01-12T06:05:13.324Z,30.30
2019-01-12T06:05:51.983Z,30.30
2019-01-12T06:06:30.702Z,30.30
2019-01-12T06:07:09.366Z,30.30
2019-01-12T06:07:48.049Z,30.30
2019-01-12T06:08:26.764Z,30.30
2019-01-12T06:09:05.693Z,30.30
2019-01-12T06:09:44.623Z,30.30
2019-01-12T06:10:23.327Z,30.30
2019-01-12T06:11:02.088Z,30.30
2019-01-12T06:11:40.803Z,30.30
2019-01-12T06:12:19.568Z,30.30
2019-01-12T06:12:58.353Z,30.30
2019-01-12T06:13:37.100Z,30.30
2019-01-12T06:14:15.745Z,30.30
2019-01-12T06:14:54.464Z,30.30
2019-01-12T06:15:33.130Z,30.30
2019-01-12T06:16:11.868Z,30.30
2019-01-12T06:16:50.622Z,30.30
2019-01-12T06:17:29.255Z,30.30
2019-01-12T06:18:08.045Z,30.30
2019-01-12T06:18:46.653Z,30.30
2019-01-12T06:19:25.351Z,30.30
2019-01-12T06:20:04.188Z,30.30
2019-01-12T06:20:42.861Z,30.40
2019-01-12T06:21:21.584Z,30.30
2019-01-12T06:22:00.554Z,30.30
2019-01-12T06:22:39.201Z,30.40
2019-01-12T06:23:17.851Z,30.40
2019-01-12T06:23:56.439Z,30.40
2019-01-12T06:24:35.170Z,30.40
2019-01-12T06:25:13.826Z,30.40
2019-01-12T06:25:52.602Z,30.40
2019-01-12T06:26:31.279Z,30.40
2019-01-12T06:27:10.175Z,30.40
2019-01-12T06:27:48.756Z,30.40
2019-01-12T06:28:27.410Z,30.40
2019-01-12T06:29:06.080Z,30.40
2019-01-12T06:29:44.765Z,30.40
2019-01-12T06:30:24.296Z,30.40
2019-01-12T06:31:03.024Z,30.40
2019-01-12T06:31:41.704Z,30.40
2019-01-12T06:32:20.355Z,30.40
2019-01-12T06:32:59.040Z,30.40
2019-01-12T06:33:37.767Z,30.40
2019-01-12T06:34:16.491Z,30.40
2019-01-12T06:34:55.134Z,30.40
2019-01-12T06:35:33.838Z,30.40
2019-01-12T06:36:12.532Z,30.40
2019-01-12T06:36:51.249Z,30.40
2019-01-12T06:37:29.962Z,30.40
2019-01-12T06:38:08.731Z,30.40
2019-01-12T06:38:47.445Z,30.40
2019-01-12T06:39:26.050Z,30.40
2019-01-12T06:40:05.248Z,30.40
2019-01-12T06:40:43.889Z,30.40
2019-01-12T06:41:22.650Z,30.40
2019-01-12T06:42:01.335Z,30.40
2019-01-12T06:42:40.016Z,30.40
2019-01-12T06:43:18.719Z,30.40
2019-01-12T06:43:57.431Z,30.40
2019-01-12T06:44:36.140Z,30.40
2019-01-12T06:45:15.747Z,30.40
2019-01-12T06:45:54.445Z,30.40
2019-01-12T06:46:33.169Z,30.40
2019-01-12T06:47:11.880Z,30.40
2019-01-12T06:47:50.624Z,30.40
2019-01-12T06:48:29.310Z,30.40
2019-01-12T06:49:07.954Z,30.40
2019-01-12T06:49:46.697Z,30.50
2019-01-12T06:50:25.503Z,30.40
2019-01-12T06:51:04.155Z,30.40
2019-01-12T06:51:42.892Z,30.40
2019-01-12T06:52:21.643Z,30.40
2019-01-12T06:53:00.306Z,30.40
2019-01-12T06:53:38.984Z,30.40
2019-01-12T06:54:17.673Z,30.40
2019-01-12T06:54:56.461Z,30.40
2019-01-12T06:55:35.163Z,30.50
2019-01-12T06:56:14.580Z,30.50
2019-01-12T06:56:53.926Z,30.50
2019-01-12T06:57:32.607Z,30.50
2019-01-12T06:58:11.279Z,30.50
2019-01-12T06:58:49.993Z,30.50
2019-01-12T06:59:28.651Z,30.50
2019-01-12T07:00:08.180Z,30.50
2019-01-12T07:00:46.905Z,30.50
2019-01-12T07:01:25.599Z,30.50
2019-01-12T07:02:04.422Z,30.50
2019-01-12T07:02:43.117Z,30.50
2019-01-12T07:03:21.699Z,30.50
2019-01-12T07:04:00.391Z,30.50
2019-01-12T07:04:39.014Z,30.50
2019-01-12T07:05:17.678Z,30.50
2019-01-12T07:05:56.429Z,30.50
2019-01-12T07:06:35.130Z,30.50
2019-01-12T07:07:13.831Z,30.50
2019-01-12T07:07:52.557Z,30.40
2019-01-12T07:08:31.243Z,30.50
2019-01-12T07:09:11.570Z,30.50
2019-01-12T07:09:50.303Z,30.50
2019-01-12T07:10:29.173Z,30.50
2019-01-12T07:11:07.917Z,30.50
2019-01-12T07:11:46.504Z,30.50
2019-01-12T07:12:25.247Z,30.50
2019-01-12T07:13:04.004Z,30.50
2019-01-12T07:13:42.671Z,30.50
2019-01-12T07:14:21.395Z,30.50
2019-01-12T07:15:00.219Z,30.50
2019-01-12T07:15:38.956Z,30.50
2019-01-12T07:16:17.630Z,30.50
2019-01-12T07:16:56.402Z,30.50
2019-01-12T07:17:35.117Z,30.50
2019-01-12T07:18:14.856Z,30.50
2019-01-12T07:18:53.639Z,30.50
2019-01-12T07:19:32.276Z,30.50
2019-01-12T07:20:13.678Z,30.50
2019-01-12T07:20:52.492Z,30.50
2019-01-12T07:21:31.321Z,30.50
2019-01-12T07:22:10.136Z,30.50
2019-01-12T07:22:48.948Z,30.50
2019-01-12T07:23:27.768Z,30.50
2019-01-12T07:24:06.529Z,30.50
2019-01-12T07:24:45.259Z,30.50
2019-01-12T07:25:23.931Z,30.50
2019-01-12T07:26:02.616Z,30.50
2019-01-12T07:26:41.502Z,30.50
2019-01-12T07:27:20.151Z,30.50
2019-01-12T07:27:58.884Z,30.50
2019-01-12T07:28:37.552Z,30.50
2019-01-12T07:29:16.199Z,30.50
2019-01-12T07:29:54.835Z,30.50
2019-01-12T07:30:33.565Z,30.50
2019-01-12T07:31:12.254Z,30.50
2019-01-12T07:31:50.965Z,30.50
2019-01-12T07:32:29.612Z,30.60
2019-01-12T07:33:08.273Z,30.60
2019-01-12T07:33:46.984Z,30.60
2019-01-12T07:34:25.729Z,30.60
2019-01-12T07:35:04.369Z,30.60
2019-01-12T07:35:43.208Z,30.60
2019-01-12T07:36:21.942Z,30.60
2019-01-12T07:37:00.602Z,30.60
2019-01-12T07:37:39.319Z,30.60
2019-01-12T07:38:18.053Z,30.60
2019-01-12T07:38:56.786Z,30.60
2019-01-12T07:39:35.482Z,30.60
2019-01-12T07:40:14.153Z,30.60
2019-01-12T07:40:53.235Z,30.60
2019-01-12T07:41:31.979Z,30.60
2019-01-12T07:42:10.627Z,30.60
2019-01-12T07:42:49.396Z,30.60
2019-01-12T07:43:28.097Z,30.60
2019-01-12T07:44:06.879Z,30.60
2019-01-12T07:44:45.508Z,30.60
2019-01-12T07:45:24.210Z,30.60
2019-01-12T07:46:02.947Z,30.60
2019-01-12T07:46:41.581Z,30.60
2019-01-12T07:47:20.307Z,30.60
2019-01-12T07:47:58.981Z,30.60
2019-01-12T07:48:37.629Z,30.60
2019-01-12T07:49:16.345Z,30.60
2019-01-12T07:49:55.069Z,30.60
2019-01-12T07:50:33.828Z,30.60
2019-01-12T07:51:12.530Z,30.60
2019-01-12T07:51:51.147Z,30.60
2019-01-12T07:52:29.793Z,30.60
2019-01-12T07:53:08.407Z,30.60
2019-01-12T07:53:47.100Z,30.60
2019-01-12T07:54:25.784Z,30.60
2019-01-12T07:55:05.700Z,30.60
2019-01-12T07:55:44.394Z,30.60
2019-01-12T07:56:24.658Z,30.60
2019-01-12T07:57:03.101Z,30.60
2019-01-12T07:57:41.750Z,30.60
2019-01-12T07:58:20.484Z,30.60
2019-01-12T07:58:59.208Z,30.60
2019-01-12T07:59:37.957Z,30.60
2019-01-12T08:00:22.322Z,30.60
2019-01-12T08:01:01.009Z,30.60
2019-01-12T08:01:39.827Z,30.60
2019-01-12T08:02:18.587Z,30.60
2019-01-12T08:02:57.381Z,30.60
2019-01-12T08:03:36.017Z,30.70
2019-01-12T08:04:14.764Z,30.60
2019-01-12T08:04:53.569Z,30.70
2019-01-12T08:05:32.272Z,30.60
2019-01-12T08:06:10.906Z,30.70
2019-01-12T08:06:49.612Z,30.70
2019-01-12T08:07:28.320Z,30.70
2019-01-12T08:08:06.988Z,30.70
2019-01-12T08:08:45.727Z,30.70
2019-01-12T08:09:24.399Z,30.70
2019-01-12T08:10:03.082Z,30.70
2019-01-12T08:10:41.807Z,30.70
2019-01-12T08:11:20.506Z,30.70
2019-01-12T08:11:59.167Z,30.70
2019-01-12T08:12:37.920Z,30.70
2019-01-12T08:13:16.706Z,30.70
2019-01-12T08:13:55.482Z,30.70
2019-01-12T08:14:34.234Z,30.70
2019-01-12T08:15:12.947Z,30.70
2019-01-12T08:15:51.634Z,30.70
2019-01-12T08:16:30.215Z,30.70
2019-01-12T08:17:09.904Z,30.70
2019-01-12T08:17:48.724Z,30.70
2019-01-12T08:18:27.398Z,30.70
2019-01-12T08:19:06.103Z,30.70
2019-01-12T08:19:44.795Z,30.70